Weather at Southwest General Hospital Heliport

Public forecast

Using degrees Fahrenheit for public forecast. Weather courtesy of forecast.io.

Closest aviation weather report (METAR) to Southwest General Hospital Heliport

Closest report is Lackland Air Force Base, 2.7 nm (5.0 km) NW.

2024/07/17 19:56 (retrieved 35 minutes ago)

KSKF 171956Z 15008KT 10SM FEW055 SCT200 37/20 A2995 RMK SLP133 T03650198

Closest aviation forecast (TAF) to Southwest General Hospital Heliport

Closest forecast is Lackland Air Force Base, 2.7 nm (5.0 km) NW.

2024/07/17 18:59 (retrieved 2 hours ago)

TAF KSKF 171800Z 1718/1900 15009KT 9999 FEW050 FEW200 QNH2988INS BECMG 1808/1809 VRB05KT 9999 BKN200 QNH2999INS BECMG 1815/1816 04010KT 9000 -SHRA VCTS BKN020CB BKN200 QNH2992INS BECMG 1818/1819 32010KT 9999 VCSH SCT030 SCT200 QNH2994INS TX37/1721Z TN25/1812Z